• Join FlightAware (Why Join?)
  • Login
  • US Flag 
01:02AM EDT


 

Airport Tracker/Info


-or-


 

Live Flight TrackerFlight Track Log ✈ DAL1981 ✈ 05-Aug-2013 ✈ KSMF - KMSP

Flight Track Log - Related Links

Times and Time Zones

All times are in EDT time to prevent confusion due to time zone crossing. See the DAL1981 flight status page for this flight to view local times or setup timezone preferences in your user account.

Time Position Orientation Groundspeed Altitude Reporting Facility
EDT Latitude Longitude Course Direction KTS MPH feet Rate Location/Type
03:50PM 38.6500 -121.5500 38° Northeast 181 208 1,800  Level Northern Cal TRACON
03:51PM 38.6500 -121.4667 90° East 259 298 3,100 2,160 Climbing Northern Cal TRACON
03:52PM 38.5042 -121.2208 67° East  Level FlightAware Approximate
03:53PM 38.5431 -121.0513 76° East  Level FlightAware Approximate
03:53PM 38.6561 -121.2897 87° East 273 314 8,000  Level Oakland Center
03:54PM 38.5732 -120.8784 78° East  Level FlightAware Approximate
03:54PM 38.6628 -121.1883 85° East 288 331 10,000  Level Oakland Center
03:55PM 38.6023 -120.7052 76° East  Level FlightAware Approximate
03:55PM 38.6692 -121.0725 86° East 320 368 10,600  Level Oakland Center
03:56PM 38.6438 -120.5395 38° Northeast  Level FlightAware Approximate
03:56PM 38.6772 -120.9353 86° East 372 428 12,400  Level Oakland Center
03:57PM 38.6850 -120.7972 86° East 384 442 14,300 1,860 Climbing Oakland Center
03:58PM 38.7097 -120.6603 77° East 400 460 16,300 1,800 Climbing Oakland Center
03:59PM 38.7853 -120.5542 48° Northeast 407 468 18,100 1,560 Climbing Oakland Center
04:00PM 38.8633 -120.4417 48° Northeast 416 479 19,500 1,320 Climbing Oakland Center
04:01PM 38.9428 -120.3258 49° Northeast 428 493 20,900 1,500 Climbing Oakland Center
04:02PM 39.0422 -120.1822 48° Northeast 443 510 22,600 1,500 Climbing Oakland Center
04:03PM 39.1233 -120.0647 48° Northeast 451 519 24,000 1,320 Climbing Oakland Center
04:04PM 39.2089 -119.9425 48° Northeast 457 526 25,400 1,200 Climbing Oakland Center
04:05PM 39.2944 -119.8181 48° Northeast 462 532 26,500 960 Climbing Oakland Center
04:06PM 39.3800 -119.6925 49° Northeast 466 536 27,400 780 Climbing Oakland Center
04:07PM 39.4689 -119.5631 48° Northeast 475 547 28,200 900 Climbing Oakland Center
04:08PM 39.5572 -119.4322 49° Northeast 478 550 29,300 900 Climbing Oakland Center
04:09PM 39.6453 -119.3000 49° Northeast 482 555 30,100 660 Climbing Oakland Center
04:10PM 39.7353 -119.1678 48° Northeast 484 557 30,700 720 Climbing Oakland Center
04:11PM 39.8442 -119.0036 49° Northeast 492 566 31,600 780 Climbing Oakland Center
04:12PM 39.9342 -118.8661 49° Northeast 494 568 32,400 720 Climbing Oakland Center
04:13PM 40.0178 -118.7233 53° Northeast 491 565 33,100 720 Climbing Oakland Center
04:14PM 40.0692 -118.5594 68° East 486 559 33,900 660 Climbing Oakland Center
04:16PM 40.1203 -118.3956 68° East 485 558 34,500 420 Climbing Oakland Center
04:17PM 40.1703 -118.2308 68° East 486 559 34,800 240 Climbing Oakland Center
04:17PM 40.2211 -118.0633 68° East 494 568 35,000 60 Climbing Salt Lake Center
04:19PM 40.2703 -117.8992 69° East 504 580 35,000  Level Salt Lake Center
04:20PM 40.3200 -117.7358 68° East 502 578 35,000  Level Salt Lake Center
04:21PM 40.3769 -117.5442 69° East 505 581 35,000  Level Salt Lake Center
04:22PM 40.4256 -117.3794 69° East 505 581 35,000  Level Salt Lake Center
04:23PM 40.4833 -117.1869 68° East 505 581 35,000  Level Salt Lake Center
04:24PM 40.5325 -117.0186 69° East 507 583 35,000  Level Salt Lake Center
04:25PM 40.5811 -116.8486 69° East 509 586 35,000  Level Salt Lake Center
04:26PM 40.6383 -116.6525 69° East 507 583 35,000  Level Salt Lake Center
04:27PM 40.6858 -116.4858 69° East 508 585 35,000  Level Salt Lake Center
04:28PM 40.7406 -116.2903 70° East 511 588 35,000  Level Salt Lake Center
04:29PM 40.7889 -116.1211 69° East 512 589 35,000  Level Salt Lake Center
04:30PM 40.8444 -115.9256 69° East 511 588 35,000  Level Salt Lake Center
04:31PM 40.8917 -115.7553 70° East 513 590 35,000  Level Salt Lake Center
04:32PM 40.9386 -115.5853 70° East 514 592 35,000  Level Salt Lake Center
04:33PM 40.9933 -115.3869 70° East 514 592 35,000  Level Salt Lake Center
04:34PM 41.0403 -115.2139 70° East 518 596 35,000  Level Salt Lake Center
04:35PM 41.0931 -115.0147 71° East 515 593 35,000  Level Salt Lake Center
04:36PM 41.1406 -114.8425 70° East 514 592 35,000  Level Salt Lake Center
04:37PM 41.1867 -114.6642 71° East 512 589 35,000  Level Salt Lake Center
04:38PM 41.2344 -114.4850 70° East 515 593 35,000  Level Salt Lake Center
04:39PM 41.2906 -114.2717 71° East 512 589 35,000  Level Salt Lake Center
04:40PM 41.3378 -114.0917 71° East 516 594 35,000  Level Salt Lake Center
04:41PM 41.3828 -113.9122 71° East 513 590 35,000  Level Salt Lake Center
04:42PM 41.4300 -113.7325 71° East 513 590 35,000  Level Salt Lake Center
04:43PM 41.4758 -113.5514 71° East 516 594 35,000  Level Salt Lake Center
04:44PM 41.5219 -113.3708 71° East 515 593 35,000  Level Salt Lake Center
04:45PM 41.5672 -113.1892 72° East 516 594 35,000  Level Salt Lake Center
04:46PM 41.6211 -112.9708 72° East 516 594 35,000  Level Salt Lake Center
04:47PM 41.6681 -112.7844 71° East 524 603 35,000  Level Salt Lake Center
04:48PM 41.7122 -112.6006 72° East 521 600 35,000  Level Salt Lake Center
04:49PM 41.7567 -112.4158 72° East 520 598 35,000  Level Salt Lake Center
04:51PM 41.8022 -112.2289 72° East 524 603 35,000 180 Level Salt Lake Center
04:52PM 41.8469 -112.0411 72° East 527 606 35,400 480 Climbing Salt Lake Center
04:53PM 41.8903 -111.8578 72° East 519 597 36,000 240 Climbing Salt Lake Center
04:54PM 41.9436 -111.6339 72° East 523 602 36,000  Level Salt Lake Center
04:55PM 41.9697 -111.4422 80° East 522 601 36,000  Level Salt Lake Center
04:56PM 41.9883 -111.2486 83° East 520 598 36,000  Level Salt Lake Center
04:57PM 42.0061 -111.0511 83° East 529 609 36,000  Level Salt Lake Center
04:58PM 42.0281 -110.8336 82° East 529 609 36,000  Level Salt Lake Center
04:59PM 42.0461 -110.6453 83° East 531 611 36,000  Level Salt Lake Center
05:00PM 42.0681 -110.4578 81° East 531 611 36,000  Level Salt Lake Center
05:01PM 42.1169 -110.2433 73° East 534 615 36,000  Level Salt Lake Center
05:02PM 42.1589 -110.0575 73° East 539 620 36,000  Level Salt Lake Center
05:03PM 42.2078 -109.8428 73° East 537 618 36,000  Level Salt Lake Center
05:04PM 42.2492 -109.6572 73° East 538 619 36,000  Level Salt Lake Center
05:05PM 42.2978 -109.4397 73° East 540 621 36,000  Level Salt Lake Center
05:06PM 42.3394 -109.2531 73° East 540 621 36,000  Level Salt Lake Center
05:07PM 42.3817 -109.0639 73° East 546 628 36,000  Level Salt Lake Center
05:08PM 42.4283 -108.8422 74° East 548 631 36,000  Level Salt Lake Center
05:09PM 42.4689 -108.6522 74° East 549 632 36,000  Level Salt Lake Center
05:10PM 42.5178 -108.4319 73° East 548 631 36,000  Level Salt Lake Center
05:11PM 42.5567 -108.2378 75° East 552 635 36,000  Level Salt Lake Center
05:12PM 42.6019 -108.0111 75° East 558 642 36,000  Level Salt Lake Center
05:13PM 42.6411 -107.8175 75° East 558 642 36,000  Level Salt Lake Center
05:14PM 42.6875 -107.5942 74° East 553 636 36,000  Level Salt Lake Center
05:15PM 42.7253 -107.4022 75° East 551 634 36,000  Level Salt Lake Center
05:16PM 42.7642 -107.2108 74° East 548 631 36,000  Level Salt Lake Center
05:17PM 42.8089 -106.9861 75° East 550 633 36,000  Level Salt Lake Center
05:18PM 42.8450 -106.7969 75° East 541 623 36,000  Level Salt Lake Center
05:19PM 42.8714 -106.6658 75° East 552 635 36,000  Level Denver Center
05:20PM 42.9094 -106.4717 75° East 553 636 36,000  Level Denver Center
05:21PM 42.9531 -106.2450 75° East 554 638 36,000  Level Denver Center
05:22PM 42.9875 -106.0517 76° East 550 633 36,000  Level Denver Center
05:23PM 43.0333 -105.8228 75° East 556 640 36,000  Level Denver Center
05:24PM 43.0683 -105.6278 76° East 553 636 36,000  Level Denver Center
05:25PM 43.1100 -105.3994 76° East 553 636 36,000  Level Denver Center
05:26PM 43.1453 -105.2019 76° East 555 639 36,000  Level Denver Center
05:27PM 43.1808 -105.0047 76° East 555 639 36,000  Level Denver Center
05:28PM 43.2217 -104.7742 76° East 554 638 36,000  Level Denver Center
05:29PM 43.2556 -104.5772 77° East 552 635 36,000  Level Denver Center
05:30PM 43.2947 -104.3467 77° East 553 636 36,000  Level Denver Center
05:31PM 43.3281 -104.1481 77° East 555 639 36,000  Level Denver Center
05:32PM 43.3658 -103.9194 77° East 549 632 36,000  Level Denver Center
05:33PM 43.3983 -103.7219 77° East 551 634 36,000  Level Denver Center
05:34PM 43.4317 -103.5250 77° East 553 636 36,000 -240 Level Denver Center
05:35PM 43.4683 -103.2944 78° East 552 635 35,600 -540 Descending Denver Center
05:36PM 43.4986 -103.0972 78° East 550 633 35,000 -300 Descending Denver Center
05:38PM 43.5367 -102.8664 77° East 553 636 35,000  Level Denver Center
05:39PM 43.5669 -102.6694 78° East 551 634 35,000  Level Denver Center
05:40PM 43.6011 -102.4378 78° East 552 635 35,000  Level Denver Center
05:41PM 43.6322 -102.2383 78° East 555 639 35,100  Climbing Denver Center
05:42PM 43.6642 -102.0239 78° East 557 641 35,000 -60 Descending Denver Center
05:43PM 43.6944 -101.8150 79° East 556 640 35,000  Level Denver Center
05:44PM 43.7244 -101.6081 79° East 553 636 35,000  Level Denver Center
05:44PM 43.7425 -101.4856 78° East 550 633 35,000  Level Minneapolis Center
05:45PM 43.7600 -101.3594 79° East 551 634 35,000  Level Denver Center
05:46PM 43.7889 -101.1519 79° East 551 634 35,000  Level Denver Center
05:46PM 43.8014 -101.0714 78° East 552 635 35,000  Level Minneapolis Center
05:47PM 43.8181 -100.9453 80° East 549 632 35,000  Level Denver Center
05:47PM 43.8358 -100.8228 79° East 551 634 35,000  Level Minneapolis Center
05:48PM 43.8642 -100.6150 79° East 550 633 35,000  Level Minneapolis Center
05:49PM 43.8908 -100.4075 80° East 551 634 35,000  Level Minneapolis Center
05:50PM 43.9183 -100.1989 80° East 552 635 35,000  Level Minneapolis Center
05:51PM 43.9450 -99.9928 80° East 551 634 35,000  Level Minneapolis Center
05:53PM 43.9725 -99.7869 79° East 548 631 35,000 -60 Level Minneapolis Center
05:54PM 44.0028 -99.5408 80° East 545 627 34,900  Descending Minneapolis Center
05:55PM 44.0286 -99.3350 80° East 545 627 35,000  Climbing Minneapolis Center
05:56PM 44.0539 -99.1267 80° East 548 631 35,000  Level Minneapolis Center
05:57PM 44.0750 -98.9592 80° East 551 634 35,000  Level Minneapolis Center
05:58PM 44.1042 -98.7058 81° East 555 639 35,000  Level Minneapolis Center
05:59PM 44.1308 -98.4875 80° East 562 647 35,000  Level Minneapolis Center
06:00PM 44.1594 -98.2317 81° East 561 646 35,000  Level Minneapolis Center
06:01PM 44.1825 -98.0219 81° East 551 634 35,000 -180 Level Minneapolis Center
06:02PM 44.2064 -97.8128 81° East 549 632 34,700 -600 Descending Minneapolis Center
06:03PM 44.2286 -97.6061 81° East 543 625 33,800 -960 Descending Minneapolis Center
06:04PM 44.2497 -97.4053 82° East 528 608 32,800 -900 Descending Minneapolis Center
06:05PM 44.2669 -97.2456 81° East 523 602 32,000 -900 Descending Minneapolis Center
06:06PM 44.2947 -96.9697 82° East 515 593 31,000 -480 Descending Minneapolis Center
06:07PM 44.2617 -96.7781 103° East 523 602 31,000  Level Minneapolis Center
06:08PM 44.1736 -96.5744 121° Southeast 517 595 31,000  Level Minneapolis Center
06:09PM 44.1006 -96.4089 122° Southeast 514 592 31,000 -60 Level Minneapolis Center
06:10PM 44.0567 -96.1844 105° East 525 604 30,900 -540 Descending Minneapolis Center
06:11PM 44.1047 -96.0111 69° East 499 574 30,000 -1,080 Descending Minneapolis Center
06:12PM 44.1708 -95.8575 59° Northeast 475 547 28,700 -1,260 Descending Minneapolis Center
06:13PM 44.2336 -95.7047 60° Northeast 463 533 27,500 -1,200 Descending Minneapolis Center
06:14PM 44.2953 -95.5525 60° Northeast 456 525 26,300 -1,380 Descending Minneapolis Center
06:15PM 44.3725 -95.3644 60° Northeast 465 535 24,700 -1,380 Descending Minneapolis Center
06:16PM 44.4353 -95.2106 60° Northeast 461 531 23,500 -1,140 Descending Minneapolis Center
06:18PM 44.4853 -95.0547 66° East 447 514 22,400 -1,080 Descending Minneapolis Center
06:19PM 44.5231 -94.8911 72° East 443 510 21,300 -1,500 Descending Minneapolis Center
06:20PM 44.5617 -94.7317 71° East 438 504 19,300 -2,280 Descending Minneapolis Center
06:21PM 44.6006 -94.5619 72° East 423 487 16,700 -2,160 Descending Minneapolis Center
06:22PM 44.6281 -94.4428 72° East 405 466 14,900 -2,040 Descending Minneapolis Center
06:23PM 44.6683 -94.2683 72° East 390 449 12,600 -1,920 Descending Minneapolis Center
06:24PM 44.7047 -94.1031 73° East 370 426 11,000 -780 Descending Minneapolis Center
06:25PM 44.7356 -93.9664 72° East 368 423 11,000  Level Minneapolis Center
06:26PM 44.7658 -93.8306 73° East 365 420 11,000 -360 Level Minneapolis Center
06:27PM 44.7953 -93.6989 72° East 350 403 10,200 -1,140 Descending Minneapolis Center
06:28PM 44.8253 -93.5614 73° East 305 351 8,400 -1,080 Descending Minneapolis Center
06:29PM 44.8500 -93.4497 73° East 299 344 8,000 -240 Descending Minneapolis Center
06:30PM 44.8556 -93.3442 86° East 280 322 8,000 -960 Level Minneapolis Center
06:31PM 44.7711 -93.3008 160° South 282 325 6,100 -1,320 Descending Minneapolis Center
06:32PM 44.7083 -93.2811 167° South 240 276 5,300 -1,020 Descending Minneapolis Center
06:33PM 44.6775 -93.2261 128° Southeast 220 253 4,000 -900 Descending Minneapolis Center
06:34PM 44.7317 -93.2008 18° North 183 211 3,500 -780 Descending Minneapolis Center
06:35PM 44.7775 -93.2136 349° North 179 206 2,500 -900 Descending Minneapolis Center
06:36PM 44.8200 -93.2247 349° North 159 183 1,700 -780 Descending Minneapolis Center
06:37PM 44.8594 -93.2350 350° North 146 168 1,000 -720 Descending Minneapolis Center